Gao Qiang — VRVQ8 — position and weather

sailwx.info

Track history (hours):
 
Tides and Currents Weather Stations Pressure Air Temp Water Temp Dewpoint Dewpoint Depression Visibility Wind Speed Wind Dir Waves Ship Positions

Gao Qiang

Last reported at 2015-Jan-27 08:23 UTC. Time now 2015-Jan-30 21:35 UTC.
Position N 33°25' W 026°43'.

Length 186 m; draft 10.5 m.

Type: Cargo ship. MMSI: 477611000.

Date/timePositionNaut miles runAvg speedWind from/ knotsBaromVisibWave heightAir tempDewpointWater temp
2015-Jan-27 08:23N 33°25' W 026°43'10111.4
2015-Jan-26 23:29N 33°40' W 024°44'  
2015-Jan-23 15:05N 35°58' W 005°36'610.2
2015-Jan-23 14:30N 35°60' W 005°29'7 7.0
2015-Jan-23 13:33N 36°05' W 005°25'0 0.2
2015-Jan-23 11:24N 36°06' W 005°25'0 0.0
2015-Jan-23 10:33N 36°06' W 005°25'0 0.0
2015-Jan-23 08:24N 36°06' W 005°25'0 0.0
2015-Jan-23 07:27N 36°06' W 005°25'0 0.0
2015-Jan-23 06:30N 36°06' W 005°25'0 0.2
2015-Jan-23 05:30N 36°06' W 005°25'0 0.0
2015-Jan-23 04:30N 36°06' W 005°25'0 0.3
2015-Jan-23 03:32N 36°06' W 005°25'6 6.0
2015-Jan-23 02:33N 36°05' W 005°18'4 3.9
2015-Jan-23 01:33N 36°05' W 005°13'6 6.4
2015-Jan-23 00:33N 36°04' W 005°20'1 0.8
2015-Jan-22 23:33N 36°05' W 005°20'7 7.4
2015-Jan-22 22:33N 36°05' W 005°11'  
2015-Jan-19 11:17N 36°39' E 013°40'912.1
2015-Jan-19 10:33N 36°36' E 013°50'1212.0
2015-Jan-19 09:33N 36°32' E 014°04'1212.1
2015-Jan-19 08:33N 36°30' E 014°19'1311.9
2015-Jan-19 07:27N 36°28' E 014°35'  
Track history (hours):
 
Tides and Currents Weather Stations Pressure Air Temp Water Temp Dewpoint Dewpoint Depression Visibility Wind Speed Wind Dir Waves Ship Positions

Gao Qiang

Last reported at 2015-Jan-27 08:23 UTC. Time now 2015-Jan-30 21:35 UTC.
Position N 33°25' W 026°43'.

Length 186 m; draft 10.5 m.

Type: Cargo ship. MMSI: 477611000.

Date/timePositionNaut miles runAvg speedWind from/ knotsBaromVisibWave heightAir tempDewpointWater temp
2015-Jan-27 08:23N 33°25' W 026°43'10111.4
2015-Jan-26 23:29N 33°40' W 024°44'  
2015-Jan-23 15:05N 35°58' W 005°36'610.2
2015-Jan-23 14:30N 35°60' W 005°29'7 7.0
2015-Jan-23 13:33N 36°05' W 005°25'0 0.2
2015-Jan-23 11:24N 36°06' W 005°25'0 0.0
2015-Jan-23 10:33N 36°06' W 005°25'0 0.0
2015-Jan-23 08:24N 36°06' W 005°25'0 0.0
2015-Jan-23 07:27N 36°06' W 005°25'0 0.0
2015-Jan-23 06:30N 36°06' W 005°25'0 0.2
2015-Jan-23 05:30N 36°06' W 005°25'0 0.0
2015-Jan-23 04:30N 36°06' W 005°25'0 0.3
2015-Jan-23 03:32N 36°06' W 005°25'6 6.0
2015-Jan-23 02:33N 36°05' W 005°18'4 3.9
2015-Jan-23 01:33N 36°05' W 005°13'6 6.4
2015-Jan-23 00:33N 36°04' W 005°20'1 0.8
2015-Jan-22 23:33N 36°05' W 005°20'7 7.4
2015-Jan-22 22:33N 36°05' W 005°11'  
2015-Jan-19 11:17N 36°39' E 013°40'912.1
2015-Jan-19 10:33N 36°36' E 013°50'1212.0
2015-Jan-19 09:33N 36°32' E 014°04'1212.1
2015-Jan-19 08:33N 36°30' E 014°19'1311.9
2015-Jan-19 07:27N 36°28' E 014°35'  

Dump ship's entire track history